createdAt,value
2023-02-03T00:01:51.937Z,2.78
2023-02-03T00:04:53.229Z,3.08
2023-02-03T00:07:54.486Z,2.78
2023-02-03T00:10:55.746Z,2.00
2023-02-03T00:13:57.036Z,2.08
2023-02-03T00:16:58.272Z,2.85
2023-02-03T00:19:59.522Z,1.85
2023-02-03T00:23:00.817Z,2.38
2023-02-03T00:26:02.057Z,2.43
2023-02-03T00:29:03.294Z,2.10
2023-02-03T00:32:04.645Z,1.90
2023-02-03T00:35:06.138Z,2.20
2023-02-03T00:38:07.398Z,2.53
2023-02-03T00:41:08.657Z,1.90
2023-02-03T00:44:09.902Z,3.47
2023-02-03T00:47:11.160Z,1.55
2023-02-03T00:50:12.437Z,1.85
2023-02-03T00:53:13.695Z,1.77
2023-02-03T00:56:14.959Z,2.20
2023-02-03T00:59:16.194Z,2.80
2023-02-03T01:02:17.452Z,2.00
2023-02-03T01:05:18.707Z,1.95
2023-02-03T01:08:19.994Z,2.08
2023-02-03T01:11:21.263Z,2.03
2023-02-03T01:14:22.525Z,2.33
2023-02-03T01:17:23.772Z,1.80
2023-02-03T01:20:25.644Z,2.00
2023-02-03T01:23:27.164Z,2.55
2023-02-03T01:26:28.415Z,2.37
2023-02-03T01:29:29.661Z,2.05
2023-02-03T01:32:30.924Z,2.92
2023-02-03T01:35:32.175Z,2.25
2023-02-03T01:38:33.437Z,2.25
2023-02-03T01:41:34.716Z,1.80
2023-02-03T01:44:35.970Z,2.38
2023-02-03T01:47:37.234Z,2.72
2023-02-03T01:50:38.493Z,2.35
2023-02-03T01:53:39.722Z,2.15
2023-02-03T01:56:40.968Z,1.97
2023-02-03T01:59:42.244Z,3.10
2023-02-03T02:02:43.567Z,2.35
2023-02-03T02:05:44.878Z,1.60
2023-02-03T02:08:46.139Z,2.00
2023-02-03T02:11:47.412Z,1.67
2023-02-03T02:14:48.659Z,2.20
2023-02-03T02:17:49.914Z,2.13
2023-02-03T02:20:51.161Z,2.08
2023-02-03T02:23:52.455Z,2.50
2023-02-03T02:26:53.716Z,2.90
2023-02-03T02:29:54.987Z,1.85
2023-02-03T02:32:56.233Z,2.42
2023-02-03T02:35:57.495Z,2.78
2023-02-03T02:38:58.732Z,2.75
2023-02-03T02:41:59.963Z,2.10
2023-02-03T02:45:01.215Z,2.25
2023-02-03T02:48:02.466Z,2.80
2023-02-03T02:51:03.703Z,1.90
2023-02-03T02:54:04.947Z,2.25
2023-02-03T02:57:06.203Z,2.27
2023-02-03T03:00:07.453Z,2.40
2023-02-03T03:03:08.715Z,2.97
2023-02-03T03:06:09.951Z,2.97
2023-02-03T03:09:11.205Z,1.80
2023-02-03T03:12:12.467Z,2.00
2023-02-03T03:15:13.701Z,1.77
2023-02-03T03:18:14.962Z,1.95
2023-02-03T03:21:16.368Z,2.70
2023-02-03T03:24:17.630Z,2.40
2023-02-03T03:27:18.947Z,2.17
2023-02-03T03:30:20.212Z,1.65
2023-02-03T03:33:21.435Z,2.45
2023-02-03T03:36:22.701Z,2.38
2023-02-03T03:39:23.985Z,2.08
2023-02-03T03:42:25.318Z,1.60
2023-02-03T03:45:26.615Z,2.38
2023-02-03T03:48:27.848Z,1.92
2023-02-03T03:51:29.113Z,2.10
2023-02-03T03:54:30.361Z,1.60
2023-02-03T03:57:31.627Z,2.03
2023-02-03T04:00:32.872Z,3.13
2023-02-03T04:03:34.159Z,2.88
2023-02-03T04:06:35.404Z,2.47
2023-02-03T04:09:36.737Z,2.83
2023-02-03T04:12:37.995Z,2.50
2023-02-03T04:15:39.237Z,3.30
2023-02-03T04:18:40.507Z,3.55
2023-02-03T04:21:41.750Z,1.85
2023-02-03T04:24:43.009Z,2.58
2023-02-03T04:27:44.298Z,3.20
2023-02-03T04:30:45.615Z,2.20
2023-02-03T04:33:46.929Z,3.33
2023-02-03T04:36:48.163Z,3.65
2023-02-03T04:39:49.418Z,2.63
2023-02-03T04:42:50.668Z,3.20
2023-02-03T04:45:52.066Z,4.07
2023-02-03T04:48:53.474Z,4.35
2023-02-03T04:51:54.736Z,3.75
2023-02-03T04:54:55.978Z,5.07
2023-02-03T04:57:57.274Z,4.40
2023-02-03T05:00:58.569Z,3.28
2023-02-03T05:03:59.834Z,3.28
2023-02-03T05:07:01.090Z,3.25
2023-02-03T05:10:02.339Z,3.65
2023-02-03T05:13:03.582Z,2.77
2023-02-03T05:16:04.873Z,3.30
2023-02-03T05:19:06.152Z,3.50
2023-02-03T05:22:07.410Z,2.55
2023-02-03T05:25:08.659Z,2.17
2023-02-03T05:28:09.993Z,3.30
2023-02-03T05:31:11.333Z,2.22
2023-02-03T05:34:12.615Z,2.00
2023-02-03T05:37:13.877Z,2.78
2023-02-03T05:40:15.134Z,2.75
2023-02-03T05:43:16.388Z,2.63
2023-02-03T05:46:17.649Z,3.28
2023-02-03T05:49:18.987Z,2.15
2023-02-03T05:52:20.239Z,2.03
2023-02-03T05:55:21.498Z,2.35
2023-02-03T05:58:22.751Z,4.20
2023-02-03T06:01:23.986Z,3.45
2023-02-03T06:04:25.439Z,3.72
2023-02-03T06:07:26.748Z,3.28
2023-02-03T06:10:28.237Z,3.08
2023-02-03T06:13:29.689Z,2.83
2023-02-03T06:16:31.064Z,3.22
2023-02-03T06:19:32.434Z,3.20
2023-02-03T06:22:33.702Z,2.58
2023-02-03T06:25:34.962Z,3.60
2023-02-03T06:28:36.225Z,3.97
2023-02-03T06:31:37.673Z,5.00
2023-02-03T06:34:38.988Z,4.47
2023-02-03T06:37:40.255Z,3.85
2023-02-03T06:40:41.545Z,4.18
2023-02-03T06:43:42.831Z,5.97
2023-02-03T06:46:44.067Z,6.30
2023-02-03T06:49:45.416Z,8.52
2023-02-03T06:52:46.655Z,17.73
2023-02-03T06:55:47.998Z,23.92
2023-02-03T06:58:49.363Z,19.20
2023-02-03T07:01:50.695Z,33.90
2023-02-03T07:04:51.985Z,25.45
2023-02-03T07:07:53.338Z,24.63
2023-02-03T07:10:54.573Z,27.73
2023-02-03T07:13:55.831Z,18.47
2023-02-03T07:16:57.068Z,26.88
2023-02-03T07:19:58.402Z,16.73
2023-02-03T07:22:59.712Z,24.50
2023-02-03T07:26:00.966Z,18.00
2023-02-03T07:29:02.268Z,14.83
2023-02-03T07:32:03.596Z,16.65
2023-02-03T07:35:04.923Z,19.80
2023-02-03T07:38:06.163Z,19.63
2023-02-03T07:41:07.720Z,18.90
2023-02-03T07:44:09.075Z,22.20
2023-02-03T07:47:12.464Z,19.73
2023-02-03T07:50:13.858Z,17.50
2023-02-03T07:53:15.224Z,18.98
2023-02-03T07:56:16.487Z,17.60
2023-02-03T07:59:17.776Z,14.07
2023-02-03T08:02:19.018Z,17.48
2023-02-03T08:05:20.441Z,12.63
2023-02-03T08:08:21.691Z,13.13
2023-02-03T08:11:23.057Z,9.40
2023-02-03T08:14:24.318Z,10.00
2023-02-03T08:17:25.586Z,11.43
2023-02-03T08:20:27.164Z,10.07
2023-02-03T08:23:28.618Z,10.95
2023-02-03T08:26:29.861Z,8.50
2023-02-03T08:29:31.296Z,11.90
2023-02-03T08:32:32.626Z,9.77
2023-02-03T08:35:33.895Z,9.88
2023-02-03T08:38:35.150Z,6.38
2023-02-03T08:41:36.444Z,15.38
2023-02-03T08:44:37.756Z,9.77
2023-02-03T08:47:39.274Z,9.35
2023-02-03T08:50:40.615Z,8.30
2023-02-03T08:53:41.936Z,13.35
2023-02-03T08:56:43.263Z,128.55
2023-02-03T08:59:44.833Z,99.67
2023-02-03T09:02:46.214Z,92.80
2023-02-03T09:05:47.527Z,61.40
2023-02-03T09:08:48.877Z,48.85
2023-02-03T09:11:50.289Z,57.55
2023-02-03T09:14:51.601Z,44.70
2023-02-03T09:17:53.037Z,37.30
2023-02-03T09:20:54.344Z,28.45
2023-02-03T09:23:55.795Z,36.88
2023-02-03T09:26:57.090Z,26.67
2023-02-03T09:29:58.425Z,21.53
2023-02-03T09:32:59.737Z,17.60
2023-02-03T09:36:01.054Z,23.17
2023-02-03T09:39:02.400Z,26.17
2023-02-03T09:42:03.733Z,17.75
2023-02-03T09:45:05.041Z,18.60
2023-02-03T09:48:06.334Z,18.85
2023-02-03T09:51:07.660Z,17.42
2023-02-03T09:54:08.977Z,18.38
2023-02-03T09:57:10.375Z,16.60
2023-02-03T10:00:11.740Z,17.40
2023-02-03T10:03:13.111Z,11.90
2023-02-03T10:06:14.526Z,14.48
2023-02-03T10:09:15.835Z,15.68
2023-02-03T10:12:17.142Z,24.90
2023-02-03T10:15:18.447Z,16.50
2023-02-03T10:18:19.950Z,11.35
2023-02-03T10:21:21.390Z,10.13
2023-02-03T10:24:22.707Z,16.27
2023-02-03T10:27:23.998Z,102.90
2023-02-03T10:30:25.654Z,83.93
2023-02-03T10:33:27.109Z,87.45
2023-02-03T10:36:28.424Z,69.45
2023-02-03T10:39:29.732Z,70.32
2023-02-03T10:42:31.020Z,52.35
2023-02-03T10:45:32.328Z,51.23
2023-02-03T10:48:33.639Z,31.13
2023-02-03T10:51:34.965Z,44.30
2023-02-03T10:54:36.254Z,29.35
2023-02-03T10:57:37.582Z,31.33
2023-02-03T11:00:38.880Z,23.93
2023-02-03T11:03:40.199Z,26.05
2023-02-03T11:06:41.488Z,26.13
2023-02-03T11:09:42.984Z,24.00
2023-02-03T11:12:44.386Z,21.85
2023-02-03T11:15:45.749Z,17.77
2023-02-03T11:18:47.085Z,22.15
2023-02-03T11:21:48.392Z,19.48
2023-02-03T11:24:49.780Z,16.95
2023-02-03T11:27:51.093Z,21.05
2023-02-03T11:30:52.565Z,12.47
2023-02-03T11:33:53.932Z,21.23
2023-02-03T11:36:55.282Z,17.23
2023-02-03T11:39:56.601Z,14.23
2023-02-03T11:42:57.913Z,18.90
2023-02-03T11:45:59.241Z,13.17
2023-02-03T11:49:00.623Z,18.27
2023-02-03T11:52:01.927Z,30.85
2023-02-03T11:55:03.238Z,19.52
2023-02-03T11:58:04.551Z,18.08
2023-02-03T12:01:05.862Z,13.53
2023-02-03T12:04:07.195Z,18.23
2023-02-03T12:07:08.542Z,12.05
2023-02-03T12:10:09.898Z,10.13
2023-02-03T12:13:11.333Z,11.98
2023-02-03T12:16:12.694Z,11.83
2023-02-03T12:19:14.050Z,15.13
2023-02-03T12:22:15.421Z,42.35
2023-02-03T12:25:16.739Z,33.42
2023-02-03T12:28:31.349Z,29.30
2023-02-03T12:31:34.535Z,19.90
2023-02-03T12:34:36.005Z,27.10
2023-02-03T12:37:37.323Z,23.45
2023-02-03T12:40:38.663Z,19.77
2023-02-03T12:43:39.989Z,18.17
2023-02-03T12:46:41.315Z,16.07
2023-02-03T12:49:42.631Z,16.30
2023-02-03T12:52:43.952Z,18.23
2023-02-03T12:55:45.345Z,24.58
2023-02-03T12:58:46.739Z,14.93
2023-02-03T13:01:48.071Z,15.87
2023-02-03T13:04:49.441Z,12.60
2023-02-03T13:07:50.763Z,14.20
2023-02-03T13:10:52.092Z,10.90
2023-02-03T13:13:53.405Z,13.73
2023-02-03T13:16:54.790Z,14.43
2023-02-03T13:19:56.102Z,19.40
2023-02-03T13:22:57.428Z,15.40
2023-02-03T13:25:58.759Z,14.25
2023-02-03T13:29:00.213Z,19.15
2023-02-03T13:32:01.550Z,18.20
2023-02-03T13:35:02.946Z,12.63
2023-02-03T13:38:04.245Z,15.82
2023-02-03T13:41:05.641Z,16.38
2023-02-03T13:44:06.960Z,21.95
2023-02-03T13:47:08.286Z,18.10
2023-02-03T13:50:09.584Z,15.95
2023-02-03T13:53:10.908Z,11.25
2023-02-03T13:56:12.219Z,12.43
2023-02-03T13:59:13.515Z,17.45
2023-02-03T14:02:14.841Z,12.73
2023-02-03T14:05:16.170Z,9.65
2023-02-03T14:08:17.509Z,13.93
2023-02-03T14:11:18.817Z,9.70
2023-02-03T14:14:20.140Z,12.10
2023-02-03T14:17:21.444Z,12.53
2023-02-03T14:20:22.739Z,8.05
2023-02-03T14:23:24.049Z,11.90
2023-02-03T14:26:25.371Z,13.02
2023-02-03T14:29:26.688Z,12.27
2023-02-03T14:32:28.008Z,12.90
2023-02-03T14:35:29.435Z,11.75
2023-02-03T14:38:30.932Z,9.38
2023-02-03T14:41:32.248Z,16.73
2023-02-03T14:44:33.541Z,8.85
2023-02-03T14:47:34.854Z,11.30
2023-02-03T14:50:36.159Z,10.23
2023-02-03T14:53:37.452Z,7.70
2023-02-03T14:56:38.740Z,8.80
2023-02-03T14:59:40.033Z,28.90
2023-02-03T15:02:41.363Z,39.30
2023-02-03T15:05:42.663Z,27.65
2023-02-03T15:08:43.981Z,22.83
2023-02-03T15:11:45.371Z,23.55
2023-02-03T15:14:46.679Z,26.80
2023-02-03T15:17:47.998Z,18.30
2023-02-03T15:20:49.280Z,18.90
2023-02-03T15:23:50.617Z,16.13
2023-02-03T15:26:52.007Z,13.27
2023-02-03T15:29:53.400Z,7.20
2023-02-03T15:32:54.920Z,11.83
2023-02-03T15:35:56.300Z,11.35
2023-02-03T15:38:57.667Z,18.38
2023-02-03T15:41:58.985Z,19.67
2023-02-03T15:45:00.302Z,13.73
2023-02-03T15:48:01.723Z,18.00
2023-02-03T15:51:03.380Z,11.70
2023-02-03T15:54:04.762Z,14.95
2023-02-03T15:57:06.093Z,22.10
2023-02-03T16:00:07.597Z,15.20
2023-02-03T16:03:08.961Z,24.53
2023-02-03T16:06:10.403Z,30.23
2023-02-03T16:09:11.739Z,25.30
2023-02-03T16:12:13.047Z,23.00
2023-02-03T16:15:14.354Z,22.10
2023-02-03T16:18:15.758Z,33.30
2023-02-03T16:21:17.053Z,22.33
2023-02-03T16:24:18.444Z,21.10
2023-02-03T16:27:19.759Z,21.50
2023-02-03T16:30:21.081Z,19.75
2023-02-03T16:33:22.420Z,19.57
2023-02-03T16:36:23.984Z,19.17
2023-02-03T16:39:25.330Z,14.18
2023-02-03T16:42:26.918Z,17.38
2023-02-03T16:45:28.293Z,18.08
2023-02-03T16:48:29.634Z,15.83
2023-02-03T16:51:30.944Z,13.27
2023-02-03T16:54:32.314Z,21.20
2023-02-03T16:57:33.602Z,18.35
2023-02-03T17:00:35.341Z,17.73
2023-02-03T17:03:37.048Z,13.53
2023-02-03T17:06:38.441Z,17.38
2023-02-03T17:09:39.906Z,15.38
2023-02-03T17:12:41.204Z,14.25
2023-02-03T17:15:42.574Z,16.42
2023-02-03T17:18:44.194Z,19.80
2023-02-03T17:21:45.567Z,13.98
2023-02-03T17:24:46.872Z,12.60
2023-02-03T17:27:48.235Z,13.43
2023-02-03T17:30:49.568Z,13.48
2023-02-03T17:33:50.897Z,18.27
2023-02-03T17:36:52.207Z,13.77
2023-02-03T17:56:09.008Z,13.27
2023-02-03T17:59:10.536Z,11.80
2023-02-03T18:02:11.928Z,13.45
2023-02-03T18:05:13.273Z,11.18
2023-02-03T18:08:16.649Z,12.13
2023-02-03T18:11:21.498Z,10.70
2023-02-03T18:14:23.222Z,12.88
2023-02-03T18:17:24.585Z,12.52
2023-02-03T18:20:26.281Z,11.90
2023-02-03T18:23:28.050Z,12.00
2023-02-03T18:26:29.476Z,15.60
2023-02-03T18:29:31.196Z,14.48
2023-02-03T18:32:32.993Z,10.32
2023-02-03T18:35:34.863Z,12.73
2023-02-03T18:38:36.675Z,12.00
2023-02-03T18:41:38.573Z,11.73
2023-02-03T18:44:40.359Z,12.63
2023-02-03T18:47:42.184Z,11.82
2023-02-03T18:50:44.007Z,11.27
2023-02-03T18:53:47.373Z,11.47
2023-02-03T18:56:49.149Z,10.05
2023-02-03T18:59:52.608Z,10.95
2023-02-03T19:02:55.039Z,11.60
2023-02-03T19:05:56.656Z,10.45
2023-02-03T19:08:58.087Z,10.87
2023-02-03T19:11:59.383Z,10.20
2023-02-03T19:15:01.218Z,9.27
2023-02-03T19:18:03.046Z,10.70
2023-02-03T19:21:04.926Z,10.40
2023-02-03T19:24:06.848Z,9.53
2023-02-03T19:27:08.733Z,9.27
2023-02-03T19:30:10.178Z,12.00
2023-02-03T19:33:11.926Z,10.05
2023-02-03T19:36:13.802Z,9.30
2023-02-03T19:39:15.616Z,10.50
2023-02-03T19:42:18.304Z,10.32
2023-02-03T19:45:20.162Z,8.48
2023-02-03T19:48:22.641Z,9.23
2023-02-03T19:51:24.529Z,9.77
2023-02-03T19:54:26.476Z,9.20
2023-02-03T19:57:28.384Z,10.00
2023-02-03T20:00:30.129Z,9.07
2023-02-03T20:03:31.954Z,7.75
2023-02-03T20:06:33.825Z,9.90
2023-02-03T20:09:38.040Z,9.47
2023-02-03T20:12:40.090Z,8.38
2023-02-03T20:15:41.968Z,7.80
2023-02-03T20:18:43.888Z,8.05
2023-02-03T20:21:45.726Z,9.00
2023-02-03T20:24:47.684Z,8.90
2023-02-03T20:27:50.677Z,8.82
2023-02-03T20:30:52.645Z,7.55
2023-02-03T20:33:55.737Z,8.18
2023-02-03T20:36:58.182Z,7.72
2023-02-03T20:40:00.067Z,7.40
2023-02-03T20:43:01.932Z,8.90
2023-02-03T20:46:03.793Z,6.50
2023-02-03T20:49:05.671Z,7.70
2023-02-03T20:52:14.072Z,7.28
2023-02-03T20:55:16.944Z,7.10
2023-02-03T20:58:18.379Z,6.43
2023-02-03T21:01:20.226Z,7.20
2023-02-03T21:04:22.453Z,7.25
2023-02-03T21:07:24.414Z,6.82
2023-02-03T21:10:26.198Z,5.70
2023-02-03T21:13:27.990Z,6.25
2023-02-03T21:16:29.957Z,5.00
2023-02-03T21:19:31.864Z,8.13
2023-02-03T21:22:33.753Z,5.07
2023-02-03T21:25:35.828Z,5.83
2023-02-03T21:28:37.248Z,5.32
2023-02-03T21:31:38.932Z,4.63
2023-02-03T21:34:40.784Z,4.93
2023-02-03T21:37:42.545Z,4.80
2023-02-03T21:40:44.435Z,4.50
2023-02-03T21:43:46.252Z,4.57
2023-02-03T21:46:47.959Z,4.72
2023-02-03T21:49:49.333Z,4.63
2023-02-03T21:52:51.063Z,4.47
2023-02-03T21:55:52.666Z,4.73
2023-02-03T21:58:54.151Z,4.35
2023-02-03T22:01:55.885Z,4.90
2023-02-03T22:04:57.306Z,3.83
2023-02-03T22:07:58.599Z,3.78
2023-02-03T22:10:59.908Z,3.97
2023-02-03T22:14:01.649Z,4.63
2023-02-03T22:17:02.974Z,4.70
2023-02-03T22:20:04.283Z,4.32
2023-02-03T22:23:05.831Z,3.42
2023-02-03T22:26:07.345Z,3.80
2023-02-03T22:29:08.893Z,3.83
2023-02-03T22:32:10.213Z,3.97
2023-02-03T22:35:11.527Z,4.72
2023-02-03T22:38:12.854Z,3.85
2023-02-03T22:41:14.156Z,3.97
2023-02-03T22:44:15.480Z,3.67
2023-02-03T22:47:16.779Z,4.13
2023-02-03T22:50:22.413Z,4.30
2023-02-03T22:53:32.343Z,4.15
2023-02-03T22:56:33.676Z,3.77
2023-02-03T22:59:34.960Z,4.35
2023-02-03T23:02:36.257Z,3.83
2023-02-03T23:05:37.556Z,3.95
2023-02-03T23:08:38.872Z,3.60
2023-02-03T23:11:40.168Z,4.43
2023-02-03T23:14:41.514Z,3.92
2023-02-03T23:17:42.801Z,4.20
2023-02-03T23:20:44.095Z,3.22
2023-02-03T23:23:45.408Z,3.40
2023-02-03T23:26:46.722Z,3.37
2023-02-03T23:29:48.028Z,3.35
2023-02-03T23:32:49.330Z,3.97
2023-02-03T23:35:50.642Z,3.90
2023-02-03T23:38:51.948Z,3.92
2023-02-03T23:41:53.326Z,4.37
2023-02-03T23:44:54.624Z,4.40
2023-02-03T23:47:55.911Z,3.92
2023-02-03T23:50:57.262Z,3.33
2023-02-03T23:53:58.567Z,2.97
2023-02-03T23:56:59.844Z,3.03
